Pagrindinis puslapis
METAR-TAF:

METAR-TAF

Oro uostai :

Ras al Chaima, Jungtiniai Arabų Emyratai

platuma: 25-37N, ilguma: 055-56E, Aukštis: 31 m

Dabartinis oras

Ataskaita buvo paskelbta 1 valandą ir 0 minutes, ne 03:00 UTC
Vėjas 2 kt iš Pietų/Pietvakarių
Temperatūra 16°C
Drėgmė 34%
Slėgis 1013 hPa
Matomumas 10 km arba daugiau
nėra debesų žemiau 1500 m ir nėra kamuolinių lietaus debesų

METAR: OMRK 210300Z 21002KT CAVOK 16/00 Q1012 A2991

Laikas: 08:00 (04:00 UTC)

Prognozė

Ataskaita buvo paskelbta 5 valandos ir 0 minutes, ne 23:00 UTC
Prognozė galioja nuo 21 metu 00 UTC su 22 metu 06 UTC
Vėjas 5 kt iš Rytų
Matomumas 10 km arba daugiau
nėra debesų žemiau 1500 m ir nėra kamuolinių lietaus debesų
Tapsmas
nuo 21 metu 07 UTC su 21 metu 09 UTC
Vėjas 10 kt iš Šiaurės/Šiaurės Vakarų
Tapsmas
nuo 21 metu 14 UTC su 21 metu 16 UTC
Vėjas 5 kt iš Rytų

TAF: OMRK 202300Z 2100/2206 09005KT CAVOK BECMG 2107/2109 34010KT BECMG 2114/2116 09005KT

Orai ataskaitas ir orų prognozės (METAR, TAF).

turimą stotys yra geltonos ir raudonos taškus žemėlapyje.

Perkelti pele per norėdami pamatyti stoties vardą.

Tada spustelėkite, norėdami matyti oro stebėjimo ir prognozės.

Norėdami pakeisti žemėlapį: spustelėkite ant žalios mygtukų su juodo kryžiaus žemyn,; žalią mygtuką su brūkšneliu, jei norite nutolinti; arba žalių rodyklių gretimoms žemėlapius.


METAR-TAF: